Time;durP1;ratioP1;P1;durP2;ratioP2;P2;SDS_P1;SDS_P2;PMS_P1;PMS_P2;Temp;Humidity;BMP_temperature;BMP_pressure;BME280_temperature;BME280_humidity;BME280_pressure;Samples;Min_cycle;Max_cycle;Signal;HPM_P1;HPM_P2
2022/03/14 00:00:12;;;;;;;39.17;12.55;;;12.20;61.70;;;;;;5005420;28;20065;-73
2022/03/14 00:02:39;;;;;;;40.42;13.73;;;12.20;61.70;;;;;;5003787;28;21666;-73
2022/03/14 00:05:05;;;;;;;42.50;13.45;;;12.20;61.70;;;;;;5005574;28;20041;-75
2022/03/14 00:07:36;;;;;;;44.30;13.57;;;12.10;61.50;;;;;;5003916;28;20025;-74
2022/03/14 00:10:03;;;;;;;40.30;13.20;;;12.10;61.60;;;;;;5005344;28;20018;-74
2022/03/14 00:12:30;;;;;;;45.90;12.93;;;12.10;61.60;;;;;;5005327;28;20328;-74
2022/03/14 00:14:58;;;;;;;38.78;13.35;;;12.10;61.60;;;;;;5005782;28;20117;-75
2022/03/14 00:17:26;;;;;;;32.97;12.88;;;12.10;61.30;;;;;;5004937;28;20022;-75
2022/03/14 00:19:53;;;;;;;33.65;12.23;;;12.10;61.30;;;;;;5004216;28;20041;-73
2022/03/14 00:22:19;;;;;;;33.97;11.45;;;12.10;61.40;;;;;;5005683;28;20112;-76
2022/03/14 00:24:45;;;;;;;34.92;12.32;;;12.10;61.40;;;;;;5005248;28;20069;-75
2022/03/14 00:27:11;;;;;;;29.30;12.35;;;12.10;61.50;;;;;;5006724;28;20045;-74
2022/03/14 00:29:36;;;;;;;31.40;13.55;;;12.10;61.40;;;;;;5008602;28;20112;-75
2022/03/14 00:32:02;;;;;;;41.40;12.90;;;12.10;61.70;;;;;;5009001;28;20053;-77
2022/03/14 00:34:27;;;;;;;35.97;12.60;;;12.10;61.70;;;;;;5009181;28;20026;-74
2022/03/14 00:36:53;;;;;;;32.95;12.35;;;12.10;61.70;;;;;;5009247;28;20104;-75
2022/03/14 00:39:19;;;;;;;44.05;13.23;;;12.10;61.50;;;;;;5007549;28;20060;-74
2022/03/14 00:41:45;;;;;;;30.23;12.18;;;12.10;61.60;;;;;;5007646;28;20569;-72
2022/03/14 00:44:15;;;;;;;35.03;12.18;;;12.10;61.60;;;;;;5007935;28;20033;-73
2022/03/14 00:46:41;;;;;;;35.00;12.40;;;12.10;61.60;;;;;;5007661;28;20569;-74
2022/03/14 00:49:07;;;;;;;39.60;13.45;;;12.10;61.50;;;;;;5008192;28;20041;-72
2022/03/14 00:51:35;;;;;;;35.58;12.82;;;12.10;61.30;;;;;;5009072;28;20099;-74
2022/03/14 00:54:01;;;;;;;37.10;13.70;;;12.10;61.50;;;;;;5007412;28;20505;-74
2022/03/14 00:56:27;;;;;;;39.53;12.90;;;12.10;61.40;;;;;;5007290;28;20406;-74
2022/03/14 00:58:53;;;;;;;38.10;13.82;;;12.10;61.50;;;;;;5005707;28;20037;-73
2022/03/14 01:01:19;;;;;;;45.17;13.30;;;12.10;61.50;;;;;;5007359;28;20038;-75
2022/03/14 01:03:44;;;;;;;55.17;14.15;;;12.10;61.60;;;;;;5006833;28;20029;-74
2022/03/14 01:06:10;;;;;;;53.40;13.35;;;12.10;61.50;;;;;;5007727;28;20080;-74
2022/03/14 01:08:35;;;;;;;36.47;12.82;;;12.10;61.60;;;;;;5006505;28;20084;-75
2022/03/14 01:11:01;;;;;;;43.47;13.40;;;12.10;61.90;;;;;;5008346;28;20034;-74
2022/03/14 01:13:27;;;;;;;71.82;15.77;;;12.10;61.80;;;;;;5006830;28;20084;-74
2022/03/14 01:15:53;;;;;;;71.57;14.93;;;12.10;62.00;;;;;;5008369;28;20034;-74
2022/03/14 01:18:18;;;;;;;38.63;12.93;;;12.10;62.00;;;;;;5007365;28;20037;-74
2022/03/14 01:20:44;;;;;;;28.95;12.35;;;12.00;62.20;;;;;;5006513;28;20038;-74
2022/03/14 01:23:09;;;;;;;25.35;11.80;;;12.00;62.00;;;;;;5006762;28;20029;-74
2022/03/14 01:25:36;;;;;;;28.25;11.10;;;12.00;62.00;;;;;;5008079;28;20056;-74
2022/03/14 01:28:02;;;;;;;267.75;28.00;;;12.00;62.00;;;;;;5007098;28;20041;-75
2022/03/14 01:30:28;;;;;;;81.93;15.80;;;12.00;62.00;;;;;;5007777;28;20860;-73
2022/03/14 01:32:54;;;;;;;24.73;12.43;;;12.10;61.90;;;;;;5008083;28;20032;-75
2022/03/14 01:35:20;;;;;;;21.95;10.98;;;12.10;61.70;;;;;;5006579;28;20030;-73
2022/03/14 01:37:49;;;;;;;43.22;12.25;;;12.00;61.70;;;;;;5005304;28;20022;-74
2022/03/14 01:40:15;;;;;;;70.95;15.13;;;12.00;61.70;;;;;;5008116;28;20064;-74
2022/03/14 01:42:41;;;;;;;43.83;13.25;;;12.00;61.40;;;;;;5006030;28;20163;-74
2022/03/14 01:45:07;;;;;;;38.60;12.35;;;12.00;61.60;;;;;;5007763;28;20506;-74
2022/03/14 01:47:34;;;;;;;44.08;12.85;;;12.10;61.50;;;;;;5007079;28;20053;-74
2022/03/14 01:49:59;;;;;;;35.42;11.98;;;12.10;61.50;;;;;;5007601;28;20080;-74
2022/03/14 01:52:25;;;;;;;29.75;11.48;;;12.00;61.50;;;;;;5006189;28;20449;-73
2022/03/14 01:54:51;;;;;;;26.42;11.18;;;12.00;61.50;;;;;;5006472;28;20056;-74
2022/03/14 01:57:17;;;;;;;23.33;11.93;;;12.10;61.50;;;;;;5007092;28;20029;-74
2022/03/14 01:59:43;;;;;;;19.92;10.55;;;12.00;61.60;;;;;;5005518;28;20034;-74
2022/03/14 02:02:09;;;;;;;18.38;10.45;;;12.00;61.50;;;;;;5005717;28;20060;-74
2022/03/14 02:04:36;;;;;;;20.27;10.75;;;12.00;61.50;;;;;;5006251;28;20048;-75
2022/03/14 02:07:01;;;;;;;19.50;9.90;;;12.00;61.40;;;;;;5005675;28;20120;-74
2022/03/14 02:09:27;;;;;;;25.75;9.85;;;12.00;61.50;;;;;;4999214;28;20116;-73
2022/03/14 02:12:08;;;;;;;73.85;14.13;;;12.00;61.50;;;;;;5006832;28;20499;-74
2022/03/14 02:14:39;;;;;;;32.03;11.60;;;12.00;61.60;;;;;;4991194;28;20399;-74
2022/03/14 02:17:10;;;;;;;35.13;11.07;;;12.00;61.60;;;;;;5005839;28;20037;-74
2022/03/14 02:19:36;;;;;;;34.17;12.05;;;12.00;61.50;;;;;;5007357;28;20837;-75
2022/03/14 02:22:09;;;;;;;24.23;10.02;;;12.00;61.50;;;;;;5005517;28;20061;-74
2022/03/14 02:24:35;;;;;;;23.83;10.00;;;12.00;61.60;;;;;;4990643;28;20556;-74
2022/03/14 02:27:02;;;;;;;25.23;10.50;;;12.00;61.50;;;;;;5006543;28;20057;-73
2022/03/14 02:29:27;;;;;;;30.20;11.15;;;12.00;61.60;;;;;;5006636;28;20034;-75
2022/03/14 02:31:54;;;;;;;38.28;11.05;;;12.00;61.60;;;;;;5005526;28;20069;-74
2022/03/14 02:34:19;;;;;;;31.15;11.25;;;12.00;61.60;;;;;;5006467;28;20034;-74
2022/03/14 02:36:45;;;;;;;24.90;10.50;;;12.00;61.70;;;;;;5006712;28;20105;-75
2022/03/14 02:39:11;;;;;;;24.73;10.73;;;12.00;61.70;;;;;;5007023;28;20026;-75
2022/03/14 02:41:37;;;;;;;35.17;10.18;;;12.00;61.70;;;;;;5006657;28;20041;-75
2022/03/14 02:44:08;;;;;;;26.25;9.70;;;12.00;62.00;;;;;;5006984;28;20033;-73
2022/03/14 02:46:34;;;;;;;22.20;10.60;;;12.00;62.70;;;;;;5005245;28;20112;-72
2022/03/14 02:49:01;;;;;;;22.35;9.73;;;12.00;62.20;;;;;;5004654;28;20137;-74
2022/03/14 02:51:27;;;;;;;26.98;10.68;;;12.00;62.20;;;;;;5003505;28;20022;-73
2022/03/14 02:53:53;;;;;;;127.18;17.05;;;12.00;62.30;;;;;;5005768;28;20479;-73
2022/03/14 02:56:20;;;;;;;25.92;10.55;;;12.00;62.30;;;;;;5006181;28;20026;-73
2022/03/14 02:58:47;;;;;;;26.80;10.25;;;12.00;62.40;;;;;;5004820;28;20040;-73
2022/03/14 03:01:14;;;;;;;17.88;9.07;;;12.00;62.30;;;;;;5005144;28;20569;-75
2022/03/14 03:03:40;;;;;;;17.10;9.35;;;12.00;62.40;;;;;;5006368;28;20372;-74
2022/03/14 03:06:07;;;;;;;17.10;9.52;;;12.00;62.40;;;;;;5004715;28;20030;-74
2022/03/14 03:08:33;;;;;;;15.18;9.45;;;12.00;62.30;;;;;;5004916;28;20029;-74
2022/03/14 03:10:59;;;;;;;14.77;9.65;;;12.00;62.30;;;;;;5006159;28;20788;-73
2022/03/14 03:13:28;;;;;;;18.42;9.98;;;12.00;62.30;;;;;;5005111;28;20125;-74
2022/03/14 03:15:54;;;;;;;13.77;9.38;;;12.00;62.40;;;;;;5005979;28;20395;-74
2022/03/14 03:18:19;;;;;;;14.25;8.90;;;12.00;62.40;;;;;;5004800;28;20053;-75
2022/03/14 03:20:45;;;;;;;14.27;9.05;;;12.00;62.50;;;;;;5004616;28;20030;-74
2022/03/14 03:23:11;;;;;;;14.73;9.40;;;12.00;62.40;;;;;;5004739;28;20037;-74
2022/03/14 03:25:36;;;;;;;16.48;9.77;;;12.00;62.40;;;;;;5005925;28;20562;-74
2022/03/14 03:28:02;;;;;;;15.15;9.23;;;12.00;62.40;;;;;;5005569;28;20291;-75
2022/03/14 03:30:27;;;;;;;13.45;9.65;;;12.00;62.50;;;;;;5004452;28;20026;-74
2022/03/14 03:32:53;;;;;;;15.52;9.13;;;12.00;62.60;;;;;;5005885;28;20030;-74
2022/03/14 03:35:19;;;;;;;13.23;9.27;;;12.00;62.70;;;;;;5005604;28;20038;-74
2022/03/14 03:37:44;;;;;;;16.02;9.93;;;12.00;62.80;;;;;;5004107;28;20037;-74
2022/03/14 03:40:10;;;;;;;12.38;9.13;;;12.00;62.80;;;;;;5006123;28;20026;-74
2022/03/14 03:42:36;;;;;;;13.02;9.00;;;12.00;62.60;;;;;;4998625;28;20029;-74
2022/03/14 03:45:02;;;;;;;13.75;9.15;;;12.00;62.60;;;;;;5004016;28;20053;-73
2022/03/14 03:47:28;;;;;;;13.15;8.73;;;11.90;62.50;;;;;;5003578;28;20764;-74
2022/03/14 03:49:53;;;;;;;13.13;8.80;;;12.00;62.60;;;;;;5004341;28;20036;-74
2022/03/14 03:52:19;;;;;;;13.43;8.77;;;12.00;62.50;;;;;;5004379;28;20029;-74
2022/03/14 03:54:44;;;;;;;12.93;9.48;;;12.00;62.50;;;;;;5004424;28;20045;-76
2022/03/14 03:57:10;;;;;;;12.90;8.93;;;12.00;62.50;;;;;;5004266;28;20031;-74
2022/03/14 03:59:35;;;;;;;12.45;9.07;;;12.00;62.50;;;;;;5004012;28;20741;-74
2022/03/14 04:02:01;;;;;;;12.85;9.57;;;11.90;62.60;;;;;;5006703;28;20045;-74
2022/03/14 04:04:27;;;;;;;13.23;9.38;;;11.90;62.60;;;;;;5009642;28;20045;-74
2022/03/14 04:06:56;;;;;;;17.55;9.85;;;11.90;62.80;;;;;;5008133;28;20038;-74
2022/03/14 04:09:22;;;;;;;18.27;9.38;;;11.90;63.00;;;;;;5008979;28;20392;-74
2022/03/14 04:11:47;;;;;;;16.42;9.18;;;11.90;63.10;;;;;;5009397;28;20041;-74
2022/03/14 04:14:13;;;;;;;17.02;9.45;;;11.90;63.30;;;;;;5008413;28;20022;-74
2022/03/14 04:16:41;;;;;;;17.17;9.60;;;11.90;63.30;;;;;;5007981;28;20022;-73
2022/03/14 04:19:07;;;;;;;16.30;9.73;;;11.90;63.50;;;;;;5009102;28;20084;-73
2022/03/14 04:21:35;;;;;;;17.10;9.60;;;11.90;63.50;;;;;;5008032;28;20030;-75
2022/03/14 04:24:03;;;;;;;18.75;9.93;;;12.00;63.60;;;;;;5007996;28;20049;-74
2022/03/14 04:26:28;;;;;;;16.30;9.40;;;11.90;63.70;;;;;;5007494;28;20403;-73
2022/03/14 04:28:54;;;;;;;12.93;9.20;;;11.90;63.90;;;;;;5007740;28;20048;-75
2022/03/14 04:31:21;;;;;;;13.50;9.05;;;11.90;64.00;;;;;;5008878;28;20030;-73
2022/03/14 04:33:47;;;;;;;15.25;9.48;;;11.90;64.00;;;;;;5007607;28;20040;-74
2022/03/14 04:36:13;;;;;;;13.35;9.13;;;11.90;64.10;;;;;;5008814;28;20037;-74
2022/03/14 04:38:39;;;;;;;13.63;9.43;;;12.00;64.30;;;;;;5008866;28;20386;-75
2022/03/14 04:41:04;;;;;;;18.02;10.23;;;11.90;64.40;;;;;;5007158;28;20105;-75
2022/03/14 04:43:31;;;;;;;14.25;10.07;;;11.90;65.10;;;;;;5008958;28;20045;-74
2022/03/14 04:45:56;;;;;;;14.68;9.80;;;11.90;64.60;;;;;;5008873;28;20483;-75
2022/03/14 04:48:23;;;;;;;17.80;9.98;;;12.00;64.80;;;;;;5006867;28;20033;-75
2022/03/14 04:50:50;;;;;;;20.55;9.65;;;11.90;64.90;;;;;;5008800;28;20045;-74
2022/03/14 04:53:17;;;;;;;15.02;9.73;;;11.90;65.00;;;;;;5008180;28;20072;-73
2022/03/14 04:55:43;;;;;;;14.80;10.38;;;11.90;65.10;;;;;;5008985;28;20394;-74
2022/03/14 04:58:12;;;;;;;16.50;9.85;;;11.90;65.20;;;;;;5007034;28;20613;-74
2022/03/14 05:00:38;;;;;;;16.60;9.90;;;11.90;65.30;;;;;;5006970;28;20049;-73
2022/03/14 05:03:05;;;;;;;16.63;10.40;;;11.90;65.50;;;;;;5007313;28;20038;-75
2022/03/14 05:05:31;;;;;;;21.30;11.38;;;11.90;65.60;;;;;;5006709;28;20390;-73
2022/03/14 05:07:57;;;;;;;14.82;10.60;;;11.90;65.70;;;;;;5007355;28;20030;-75
2022/03/14 05:10:23;;;;;;;17.67;10.68;;;11.90;65.80;;;;;;5008160;28;20400;-73
2022/03/14 05:12:49;;;;;;;15.63;10.35;;;11.90;65.80;;;;;;5006530;28;20038;-73
2022/03/14 05:15:17;;;;;;;16.83;10.75;;;11.90;65.90;;;;;;5006662;28;20805;-73
2022/03/14 05:17:44;;;;;;;14.35;10.32;;;11.90;66.00;;;;;;5006842;28;20546;-73
2022/03/14 05:20:10;;;;;;;18.05;11.18;;;11.90;66.10;;;;;;5009165;28;20061;-74
2022/03/14 05:22:49;;;;;;;14.10;10.18;;;11.90;66.20;;;;;;5007168;28;20451;-74
2022/03/14 05:25:19;;;;;;;14.20;10.25;;;11.90;66.30;;;;;;5007743;28;20049;-75
2022/03/14 05:27:45;;;;;;;19.73;10.65;;;11.90;66.40;;;;;;5004175;28;20052;-72
2022/03/14 05:30:10;;;;;;;19.52;10.48;;;11.90;66.40;;;;;;5019128;28;20068;-72
2022/03/14 05:32:39;;;;;;;15.30;11.27;;;11.90;66.50;;;;;;5008834;28;20093;-73
2022/03/14 05:35:05;;;;;;;15.65;11.20;;;11.90;66.60;;;;;;5009079;28;20091;-73
2022/03/14 05:37:31;;;;;;;16.08;11.13;;;11.90;66.70;;;;;;5007967;28;20101;-73
2022/03/14 05:39:56;;;;;;;19.27;11.80;;;11.90;66.80;;;;;;5006776;28;20621;-73
2022/03/14 05:42:23;;;;;;;16.40;11.35;;;11.90;66.80;;;;;;4998304;28;20030;-74
2022/03/14 05:44:48;;;;;;;17.17;11.70;;;11.90;66.90;;;;;;5006401;28;20081;-73
2022/03/14 05:47:14;;;;;;;17.30;11.75;;;11.90;66.90;;;;;;5005620;28;20076;-73
2022/03/14 05:49:40;;;;;;;16.60;11.48;;;11.90;67.00;;;;;;5001105;28;20041;-73
2022/03/14 05:52:06;;;;;;;15.68;11.10;;;11.90;67.10;;;;;;5005663;28;20030;-74
2022/03/14 05:54:34;;;;;;;16.08;11.52;;;11.90;67.10;;;;;;5005876;28;20033;-73
2022/03/14 05:57:00;;;;;;;16.27;10.60;;;11.90;67.20;;;;;;5008741;28;20438;-73
2022/03/14 05:59:25;;;;;;;16.77;11.13;;;11.90;67.20;;;;;;5008382;28;20034;-73
2022/03/14 06:01:51;;;;;;;15.63;11.15;;;11.90;67.20;;;;;;4999769;28;20072;-74
2022/03/14 06:04:17;;;;;;;19.40;11.90;;;11.90;67.30;;;;;;5001355;28;20045;-72
2022/03/14 06:06:43;;;;;;;16.13;11.50;;;11.90;67.30;;;;;;5005961;28;20168;-74
2022/03/14 06:09:08;;;;;;;20.70;11.40;;;11.90;67.50;;;;;;4998138;28;20112;-73
2022/03/14 06:11:34;;;;;;;19.88;12.32;;;11.90;67.40;;;;;;4999055;28;20515;-73
2022/03/14 06:14:00;;;;;;;21.17;12.65;;;11.90;67.30;;;;;;4995522;28;20057;-73
2022/03/14 06:16:26;;;;;;;19.92;13.25;;;11.90;67.30;;;;;;5006488;28;20768;-75
2022/03/14 06:18:51;;;;;;;38.78;13.82;;;11.90;67.30;;;;;;5007526;28;20119;-73
2022/03/14 06:21:17;;;;;;;18.95;12.48;;;11.90;67.40;;;;;;5008929;28;20017;-74
2022/03/14 06:23:43;;;;;;;19.35;13.13;;;11.90;67.40;;;;;;5006995;28;20026;-76
2022/03/14 06:26:09;;;;;;;19.40;13.00;;;11.90;67.40;;;;;;5008270;28;20038;-72
2022/03/14 06:28:35;;;;;;;20.00;13.60;;;11.90;67.40;;;;;;5005513;28;20061;-72
2022/03/14 06:31:00;;;;;;;19.55;13.13;;;11.90;67.50;;;;;;5005996;28;20065;-73
2022/03/14 06:33:26;;;;;;;20.98;12.90;;;11.90;67.70;;;;;;5008002;28;20061;-72
2022/03/14 06:35:51;;;;;;;19.13;13.15;;;11.90;67.80;;;;;;5007857;28;20083;-72
2022/03/14 06:38:17;;;;;;;20.67;13.23;;;11.90;67.90;;;;;;5007540;28;20018;-73
2022/03/14 06:40:43;;;;;;;18.88;12.57;;;11.90;68.50;;;;;;5008313;28;20040;-73
2022/03/14 06:43:11;;;;;;;20.10;13.50;;;11.90;68.00;;;;;;5006470;28;20026;-72
2022/03/14 06:45:38;;;;;;;16.10;12.65;;;11.90;68.20;;;;;;5005071;28;20375;-72
2022/03/14 06:48:05;;;;;;;18.90;13.40;;;11.90;68.30;;;;;;5004556;28;20026;-71
2022/03/14 06:50:31;;;;;;;17.08;12.70;;;11.90;68.20;;;;;;5007553;28;20041;-73
2022/03/14 06:52:58;;;;;;;20.27;12.98;;;11.90;68.20;;;;;;5007958;28;20022;-72
2022/03/14 06:55:24;;;;;;;19.45;12.20;;;11.90;68.60;;;;;;5007999;28;20029;-73
2022/03/14 06:57:50;;;;;;;23.85;13.60;;;11.90;68.70;;;;;;5007088;28;20033;-71
2022/03/14 07:00:16;;;;;;;19.60;13.23;;;11.90;68.70;;;;;;5006430;28;20034;-71
2022/03/14 07:02:42;;;;;;;20.85;13.35;;;11.90;68.90;;;;;;5006103;28;20034;-72
2022/03/14 07:05:13;;;;;;;18.83;12.50;;;11.90;68.80;;;;;;5008528;28;20088;-73
2022/03/14 07:07:41;;;;;;;19.35;12.93;;;11.90;69.20;;;;;;5006157;28;20033;-73
2022/03/14 07:10:08;;;;;;;20.83;13.57;;;11.90;69.70;;;;;;5006282;28;20034;-73
2022/03/14 07:12:37;;;;;;;18.00;12.35;;;11.90;69.60;;;;;;5007589;28;20100;-71
2022/03/14 07:15:03;;;;;;;19.15;13.30;;;11.90;69.60;;;;;;5006257;28;20112;-72
2022/03/14 07:17:28;;;;;;;16.70;13.00;;;11.90;69.60;;;;;;5007397;28;20116;-73
2022/03/14 07:19:54;;;;;;;19.52;13.38;;;11.80;69.50;;;;;;5005816;28;20920;-73
2022/03/14 07:22:21;;;;;;;17.02;12.88;;;11.80;69.60;;;;;;5007938;28;20033;-74
2022/03/14 07:24:47;;;;;;;17.35;12.88;;;11.80;69.70;;;;;;5006212;28;20034;-72
2022/03/14 07:27:15;;;;;;;17.77;12.93;;;11.80;69.70;;;;;;5007477;28;20054;-72
2022/03/14 07:29:40;;;;;;;17.02;11.65;;;11.80;69.70;;;;;;5006841;28;20493;-72
2022/03/14 07:32:07;;;;;;;15.73;12.57;;;11.90;69.80;;;;;;5005262;28;20033;-71
2022/03/14 07:34:33;;;;;;;16.10;12.48;;;11.90;69.80;;;;;;5005387;28;20029;-73
2022/03/14 07:36:58;;;;;;;15.63;12.40;;;11.90;69.90;;;;;;5006245;28;20026;-74
2022/03/14 07:39:23;;;;;;;17.58;12.52;;;11.90;69.90;;;;;;5005543;28;20052;-73
2022/03/14 07:41:49;;;;;;;15.40;11.63;;;11.80;69.80;;;;;;5007241;28;20034;-73
2022/03/14 07:44:14;;;;;;;18.20;11.93;;;11.80;70.00;;;;;;5005553;28;20042;-72
2022/03/14 07:46:40;;;;;;;14.82;11.70;;;11.90;70.00;;;;;;5005935;28;20030;-73
2022/03/14 07:49:07;;;;;;;15.13;12.00;;;11.80;70.10;;;;;;5006583;28;20072;-72
2022/03/14 07:51:33;;;;;;;14.88;11.57;;;11.80;70.10;;;;;;5005715;28;20026;-72
2022/03/14 07:53:58;;;;;;;14.35;11.30;;;11.90;70.20;;;;;;5005877;28;20018;-72
2022/03/14 07:56:24;;;;;;;14.70;11.20;;;11.80;70.10;;;;;;5005784;28;20452;-72
2022/03/14 07:58:49;;;;;;;16.35;11.93;;;11.90;70.30;;;;;;5005897;28;20030;-74
2022/03/14 08:01:17;;;;;;;13.88;11.00;;;11.90;70.30;;;;;;5004924;28;20275;-72
2022/03/14 08:03:42;;;;;;;14.48;10.85;;;11.90;70.30;;;;;;5006187;28;20025;-73
2022/03/14 08:06:11;;;;;;;14.32;11.00;;;11.90;70.30;;;;;;5005595;28;20030;-72
2022/03/14 08:08:37;;;;;;;13.18;10.73;;;11.90;70.30;;;;;;5006525;28;20107;-72
2022/03/14 08:11:04;;;;;;;14.48;10.98;;;11.90;70.30;;;;;;5007047;28;20093;-73
2022/03/14 08:13:30;;;;;;;13.52;10.25;;;11.90;70.30;;;;;;5006973;28;20026;-72
2022/03/14 08:15:56;;;;;;;13.15;9.93;;;11.90;70.30;;;;;;5005538;28;20490;-73
2022/03/14 08:18:21;;;;;;;14.65;10.70;;;11.90;70.40;;;;;;5006860;28;20037;-72
2022/03/14 08:20:50;;;;;;;15.07;10.70;;;11.90;70.40;;;;;;5005523;28;20033;-73
2022/03/14 08:23:16;;;;;;;13.07;10.02;;;11.90;70.40;;;;;;5006631;28;20030;-73
2022/03/14 08:25:41;;;;;;;13.57;10.02;;;11.90;70.60;;;;;;5006613;28;20049;-73
2022/03/14 08:28:07;;;;;;;13.30;9.85;;;11.90;70.60;;;;;;5006419;28;20065;-73
2022/03/14 08:30:32;;;;;;;13.48;9.82;;;11.90;70.60;;;;;;5006215;28;20733;-73
2022/03/14 08:32:58;;;;;;;12.30;9.82;;;11.90;70.60;;;;;;5005591;28;20029;-73
2022/03/14 08:35:25;;;;;;;12.27;9.02;;;11.90;70.70;;;;;;5006973;28;20022;-72
2022/03/14 08:37:52;;;;;;;13.07;9.05;;;11.90;70.70;;;;;;5005716;28;20022;-73
2022/03/14 08:40:20;;;;;;;13.15;9.77;;;11.90;70.70;;;;;;5006321;28;20032;-73
2022/03/14 08:42:46;;;;;;;13.10;9.35;;;11.90;70.70;;;;;;5005260;28;20052;-72
2022/03/14 08:45:12;;;;;;;12.95;9.02;;;11.90;70.90;;;;;;5005486;28;20066;-73
2022/03/14 08:47:38;;;;;;;12.20;9.05;;;11.90;70.80;;;;;;5006896;28;20034;-72
2022/03/14 08:50:07;;;;;;;13.43;9.20;;;11.90;71.00;;;;;;5007807;28;20029;-72
2022/03/14 08:52:34;;;;;;;11.85;9.73;;;11.90;71.10;;;;;;5004498;28;20085;-73
2022/03/14 08:54:59;;;;;;;11.70;8.95;;;11.90;71.10;;;;;;5002284;28;20901;-73
2022/03/14 08:57:25;;;;;;;13.10;9.43;;;11.90;71.10;;;;;;5010397;28;20034;-73
2022/03/14 08:59:51;;;;;;;12.75;9.43;;;11.90;71.30;;;;;;5009923;28;20065;-73
2022/03/14 09:02:17;;;;;;;12.00;9.57;;;11.90;71.40;;;;;;5010521;28;20032;-73
2022/03/14 09:04:42;;;;;;;12.60;9.25;;;11.90;71.30;;;;;;5008144;28;20535;-73
2022/03/14 09:07:08;;;;;;;11.18;8.57;;;11.90;71.40;;;;;;5009147;28;20037;-74
2022/03/14 09:09:36;;;;;;;12.52;9.38;;;11.90;71.40;;;;;;5008360;28;20033;-72
2022/03/14 09:12:02;;;;;;;11.52;8.75;;;11.90;71.40;;;;;;5008652;28;20416;-72
2022/03/14 09:14:30;;;;;;;12.02;9.20;;;11.90;71.40;;;;;;5007284;28;20064;-73
2022/03/14 09:16:57;;;;;;;13.10;9.00;;;11.90;71.50;;;;;;5007946;28;20080;-72
2022/03/14 09:19:23;;;;;;;12.02;8.88;;;11.90;71.60;;;;;;5007521;28;20030;-73
2022/03/14 09:21:48;;;;;;;12.60;8.90;;;11.90;71.60;;;;;;5009104;28;20028;-73
2022/03/14 09:24:14;;;;;;;14.27;8.57;;;11.90;71.70;;;;;;5007928;28;20519;-73
2022/03/14 09:26:39;;;;;;;10.57;7.93;;;11.90;71.70;;;;;;5008345;28;20029;-72
2022/03/14 09:29:06;;;;;;;13.02;8.63;;;11.90;71.80;;;;;;5007510;28;20116;-72
2022/03/14 09:31:32;;;;;;;12.93;8.50;;;11.90;71.90;;;;;;5009369;28;20022;-72
2022/03/14 09:33:58;;;;;;;10.13;7.40;;;11.90;71.80;;;;;;5008983;28;20395;-72
2022/03/14 09:36:24;;;;;;;10.73;7.90;;;11.90;71.90;;;;;;5007962;28;20052;-73
2022/03/14 09:38:50;;;;;;;12.80;8.60;;;11.90;72.00;;;;;;5008514;28;20476;-72
2022/03/14 09:41:19;;;;;;;11.82;8.27;;;11.90;72.00;;;;;;5009166;28;20030;-72
2022/03/14 09:43:51;;;;;;;11.07;8.27;;;11.90;72.00;;;;;;5007935;28;20041;-73
2022/03/14 09:46:18;;;;;;;11.05;8.02;;;11.90;72.00;;;;;;5007872;28;20071;-72
2022/03/14 09:48:53;;;;;;;11.23;8.15;;;11.90;72.10;;;;;;5006991;28;20030;-73
2022/03/14 09:51:22;;;;;;;10.07;7.45;;;11.90;72.20;;;;;;5009256;28;20109;-73
2022/03/14 09:53:49;;;;;;;10.15;7.60;;;11.90;72.10;;;;;;5007517;28;20056;-72
2022/03/14 09:56:15;;;;;;;10.40;7.50;;;11.90;72.60;;;;;;5008199;28;20018;-72
2022/03/14 09:58:43;;;;;;;10.40;7.07;;;11.90;72.20;;;;;;5008111;28;20032;-72
2022/03/14 10:01:09;;;;;;;11.25;7.95;;;11.90;72.70;;;;;;5008543;28;20037;-72
2022/03/14 10:03:34;;;;;;;10.40;7.50;;;11.90;72.20;;;;;;5007106;28;20116;-71
2022/03/14 10:06:00;;;;;;;10.38;7.60;;;11.90;72.30;;;;;;5007460;28;20036;-73
2022/03/14 10:08:26;;;;;;;10.80;7.57;;;11.90;72.30;;;;;;5006519;28;20026;-71
2022/03/14 10:10:52;;;;;;;10.25;6.93;;;11.90;72.30;;;;;;5008415;28;20038;-73
2022/03/14 10:13:17;;;;;;;9.75;7.07;;;11.90;72.20;;;;;;5007224;28;20025;-71
2022/03/14 10:15:44;;;;;;;10.07;7.05;;;11.90;72.30;;;;;;5007666;28;20415;-73
2022/03/14 10:18:15;;;;;;;9.20;6.53;;;11.90;72.40;;;;;;5007142;28;20028;-73
2022/03/14 10:20:57;;;;;;;8.98;6.60;;;11.90;72.40;;;;;;5008137;28;20025;-73
2022/03/14 10:23:37;;;;;;;10.52;6.82;;;11.90;72.50;;;;;;5008350;28;20022;-73
2022/03/14 10:26:06;;;;;;;9.15;6.65;;;11.90;72.50;;;;;;5008706;28;20022;-73
2022/03/14 10:28:35;;;;;;;8.70;6.50;;;11.90;72.50;;;;;;5006793;28;20030;-72
2022/03/14 10:31:02;;;;;;;8.90;6.20;;;11.90;72.50;;;;;;5006458;28;20481;-72
2022/03/14 10:33:30;;;;;;;8.80;6.20;;;11.70;72.60;;;;;;5007863;28;20041;-71
2022/03/14 10:35:57;;;;;;;8.95;6.57;;;11.90;72.70;;;;;;5006958;28;20438;-73
2022/03/14 10:38:23;;;;;;;9.10;6.63;;;11.90;72.70;;;;;;5006485;28;20203;-72
2022/03/14 10:40:49;;;;;;;9.07;6.38;;;11.90;72.90;;;;;;5006744;28;20026;-73
2022/03/14 10:43:21;;;;;;;9.85;6.80;;;11.90;73.00;;;;;;5006886;28;20113;-72
2022/03/14 10:45:47;;;;;;;9.00;6.70;;;11.90;73.00;;;;;;5006288;28;20088;-72
2022/03/14 10:48:13;;;;;;;9.60;6.50;;;11.90;73.00;;;;;;5006484;28;20034;-72
2022/03/14 10:50:40;;;;;;;9.30;6.65;;;11.90;73.10;;;;;;5006008;28;20026;-72
2022/03/14 10:53:10;;;;;;;10.15;6.80;;;11.90;73.10;;;;;;5007748;28;20026;-73
2022/03/14 10:55:41;;;;;;;9.25;6.43;;;11.90;73.10;;;;;;5007564;28;20018;-72
2022/03/14 10:58:19;;;;;;;9.93;6.72;;;11.90;73.30;;;;;;5006317;28;20148;-72
2022/03/14 11:00:46;;;;;;;9.75;6.35;;;11.90;73.30;;;;;;5006410;28;20100;-71
2022/03/14 11:03:19;;;;;;;8.98;6.18;;;11.90;73.30;;;;;;5006497;28;20029;-74
2022/03/14 11:05:45;;;;;;;7.65;5.72;;;11.90;73.80;;;;;;5007537;28;20065;-72
2022/03/14 11:08:26;;;;;;;9.63;6.63;;;11.90;73.40;;;;;;5005970;28;20522;-73
2022/03/14 11:10:51;;;;;;;9.60;6.38;;;11.90;73.60;;;;;;5006010;28;20034;-72
2022/03/14 11:13:18;;;;;;;8.63;5.85;;;11.90;73.60;;;;;;5006049;28;20044;-73
2022/03/14 11:15:44;;;;;;;9.02;6.45;;;11.90;73.70;;;;;;5003810;28;20034;-72
2022/03/14 11:18:10;;;;;;;10.98;6.75;;;11.90;73.70;;;;;;5004419;28;20487;-73
2022/03/14 11:20:35;;;;;;;8.75;6.40;;;11.90;73.80;;;;;;5005207;28;20073;-71
2022/03/14 11:23:01;;;;;;;9.90;6.80;;;11.90;74.10;;;;;;5004602;28;20037;-71
2022/03/14 11:25:27;;;;;;;8.85;6.57;;;11.90;73.90;;;;;;4999397;28;20066;-72
2022/03/14 11:27:55;;;;;;;9.68;6.90;;;11.90;74.10;;;;;;4996905;28;20038;-73
2022/03/14 11:30:21;;;;;;;8.50;5.95;;;11.90;74.00;;;;;;5023086;28;20687;-73
2022/03/14 11:32:47;;;;;;;9.15;6.47;;;11.90;74.00;;;;;;5017727;28;20030;-73
2022/03/14 11:35:13;;;;;;;8.98;6.65;;;11.90;74.10;;;;;;5004159;28;20036;-72
2022/03/14 11:37:42;;;;;;;9.73;6.30;;;11.90;74.00;;;;;;5004932;28;20084;-72
2022/03/14 11:40:08;;;;;;;9.88;6.93;;;11.90;74.30;;;;;;5004731;28;20118;-72
2022/03/14 11:42:35;;;;;;;8.57;6.47;;;11.90;74.20;;;;;;5005177;28;20413;-72
2022/03/14 11:45:03;;;;;;;9.85;6.57;;;12.00;74.40;;;;;;4996533;28;20041;-72
2022/03/14 11:47:30;;;;;;;10.35;6.78;;;12.00;74.50;;;;;;4984968;28;20105;-72
2022/03/14 11:49:55;;;;;;;9.77;6.90;;;12.00;74.40;;;;;;4985024;28;20045;-72
2022/03/14 11:52:33;;;;;;;9.15;6.35;;;12.00;74.50;;;;;;4985112;28;20646;-72
2022/03/14 11:55:00;;;;;;;9.27;6.50;;;12.00;74.50;;;;;;4987184;28;20022;-73
2022/03/14 11:57:38;;;;;;;10.40;6.82;;;12.00;74.50;;;;;;4987464;28;20101;-71
2022/03/14 12:00:37;;;;;;;10.73;7.60;;;12.00;74.50;;;;;;4985736;28;20030;-72
2022/03/14 12:03:07;;;;;;;9.30;6.95;;;12.00;74.60;;;;;;4964798;28;20388;-74
2022/03/14 12:05:33;;;;;;;9.90;7.07;;;12.00;74.70;;;;;;4986952;28;20039;-74
2022/03/14 12:07:59;;;;;;;9.05;6.55;;;12.00;74.70;;;;;;4985991;28;20107;-73
2022/03/14 12:10:30;;;;;;;10.40;6.80;;;12.00;74.80;;;;;;4985534;28;20122;-73
2022/03/14 12:12:58;;;;;;;8.52;6.43;;;12.00;75.00;;;;;;4985170;28;20038;-72
2022/03/14 12:15:37;;;;;;;9.93;6.88;;;12.00;75.00;;;;;;4985571;28;20061;-72
2022/03/14 12:18:25;;;;;;;9.38;6.68;;;12.00;74.90;;;;;;4984801;28;20023;-74
2022/03/14 12:20:51;;;;;;;17.38;7.28;;;12.00;74.80;;;;;;4986605;28;20027;-72
2022/03/14 12:23:27;;;;;;;21.85;7.28;;;12.00;74.80;;;;;;4989499;28;20026;-75
2022/03/14 12:25:54;;;;;;;18.08;7.07;;;12.00;74.80;;;;;;4990867;28;20026;-74
2022/03/14 12:28:30;;;;;;;10.95;6.53;;;12.00;74.90;;;;;;4990562;28;20514;-74
2022/03/14 12:31:13;;;;;;;11.02;6.90;;;12.00;75.60;;;;;;4989260;28;20033;-77